Denver, CO (80202)

9:20 PM MDT on March 28, 2017 (GMT -0600)
San Rafael Neighborhood | | Change Station

Elev 5253 ft 39.75 °N, 104.98 °W | Updated 12 minutes ago

Rain
Rain
37.7 °F
Feels Like 33 °F
N
6.0
Wind Variable Wind from North
Gusts 10.7 mph

Today
High -- | Low -- °F
--% Chance of Precip.
Yesterday
High -- | Low -- °F
Precip. -- in
Pressure 30.01 in
Visibility 15.0 miles
Clouds Mostly Cloudy 1100 ft
Overcast 2000 ft
Windchill 33 °F
Dew Point 38 °F
Humidity 99%
Rainfall 0.14 in
Snow Depth Not available.
6:50 AM 7:20 PM
New Moon, 1% visible
METAR KBJC 290250Z 34012G22KT 15SM -DZ BKN011 OVC020 05/03 A3001
Pressure 30.01 in
Visibility 15.0 miles
Clouds Mostly Cloudy 1100 ft
Overcast 2000 ft
Windchill 33 °F
Dew Point 38 °F
Humidity 99%
Rainfall 0.14 in
Snow Depth Not available.
6:50 AM 7:20 PM
New Moon, 1% visible
METAR KBJC 290250Z 34012G22KT 15SM -DZ BKN011 OVC020 05/03 A3001

Get Severe Weather Alerts

Thanks for signing up!

Be on the lookout for a verification email in your inbox.

You'll start receiving the daily forecast at 8 AM.

×

10-Day Weather Forecast

Almanac

Astronomy

Mar. 28, 2017 Rise Set
Actual Time
Civil Twilight
Nautical Twilight
Astronomical Twilight
Moon
Length of Visible Light
Length of Day
Tomorrow will be .
, % of the Moon is Illuminated

Today's Extremes

State Highs State Lows

Community

WunderPhotos

Upload Photos

1,962,540 photos uploaded!

WunderBlog® & News

Nearby

Air Quality

  Air Quality AQ Index Pollutant
Not available.

Snow Depth

Station Depth Elevation

Earthquake Activity

City Distance Mag. Time & Date
Minimum magnitude displayed is 2.5.

Earthquake Activity

City Distance Mag. Time & Date
Minimum magnitude displayed is 2.5.

Coastal Water Temperatures

Place Temperature

Stations

Nearby Weather Stations

Station Location Temp. Windchill Dew Point Humidity Wind Precip. Elev Updated Type
                   

Watches & Warnings

There are currently no watches in effect.